Time;durP1;ratioP1;P1;durP2;ratioP2;P2;SDS_P1;SDS_P2;PMS_P1;PMS_P2;Temp;Humidity;BMP_temperature;BMP_pressure;BME280_temperature;BME280_humidity;BME280_pressure;Samples;Min_cycle;Max_cycle;Signal;HPM_P1;HPM_P2
2021/08/10 00:01:28;;;;;;;7.40;4.33;;;;;;;15.79;65.81;100886.93;1700150;84;21119;-75
2021/08/10 00:03:54;;;;;;;8.15;3.75;;;;;;;15.78;65.76;100879.37;1696446;84;21083;-74
2021/08/10 00:06:20;;;;;;;8.28;3.10;;;;;;;15.79;65.75;100882.89;1689918;84;21694;-74
2021/08/10 00:08:46;;;;;;;6.42;3.10;;;;;;;15.81;65.70;100882.17;1696451;83;21057;-74
2021/08/10 00:11:13;;;;;;;8.55;3.05;;;;;;;15.80;65.64;100881.84;1696792;84;21108;-74
2021/08/10 00:13:39;;;;;;;5.58;3.22;;;;;;;15.81;65.61;100875.45;1696917;84;21070;-74
2021/08/10 00:16:05;;;;;;;11.75;3.67;;;;;;;15.83;65.53;100879.61;1691248;84;21085;-74
2021/08/10 00:18:31;;;;;;;6.05;3.33;;;;;;;15.85;65.46;100879.42;1689649;84;21118;-75
2021/08/10 00:20:57;;;;;;;8.63;3.35;;;;;;;15.84;65.41;100877.25;1663122;84;21091;-74
2021/08/10 00:23:23;;;;;;;9.28;3.62;;;;;;;15.85;65.37;100886.16;1679514;84;21154;-75
2021/08/10 00:25:49;;;;;;;6.20;3.10;;;;;;;15.85;65.30;100881.61;1690251;84;21500;-74
2021/08/10 00:28:15;;;;;;;3.40;2.45;;;;;;;15.88;65.27;100881.73;1690235;84;21867;-74
2021/08/10 00:30:44;;;;;;;6.65;3.27;;;;;;;15.91;65.19;100884.03;1690323;84;21071;-74
2021/08/10 00:33:11;;;;;;;6.35;3.08;;;;;;;15.91;65.12;100884.87;1690026;84;21101;-74
2021/08/10 00:35:37;;;;;;;7.28;3.10;;;;;;;15.89;65.07;100886.09;1690092;84;21850;-74
2021/08/10 00:38:03;;;;;;;4.22;2.90;;;;;;;15.92;65.03;100886.55;1689792;84;21066;-74
2021/08/10 00:40:30;;;;;;;5.50;2.85;;;;;;;15.93;64.98;100884.18;1686406;84;21078;-74
2021/08/10 00:42:56;;;;;;;5.10;2.75;;;;;;;15.95;64.90;100890.70;1643100;85;21081;-74
2021/08/10 00:45:22;;;;;;;6.60;3.50;;;;;;;15.96;64.83;100905.82;1682133;83;21101;-74
2021/08/10 00:47:49;;;;;;;6.08;3.75;;;;;;;15.88;64.79;100922.91;1705146;83;21680;-74
2021/08/10 00:50:15;;;;;;;11.97;4.62;;;;;;;15.71;64.83;100930.07;1678136;84;21584;-74
2021/08/10 00:52:41;;;;;;;8.38;4.03;;;;;;;15.55;65.00;100937.03;1704985;84;21081;-75
2021/08/10 00:55:08;;;;;;;9.53;3.58;;;;;;;15.42;65.16;100934.46;1704377;84;21081;-75
2021/08/10 00:57:34;;;;;;;10.25;3.80;;;;;;;15.38;65.33;100942.58;1693276;84;21670;-75
2021/08/10 01:00:00;;;;;;;5.90;3.80;;;;;;;15.40;65.45;100940.55;1690213;84;21778;-75
2021/08/10 01:02:27;;;;;;;6.55;3.90;;;;;;;15.41;65.55;100947.57;1689810;84;21085;-75
2021/08/10 01:04:53;;;;;;;11.48;4.28;;;;;;;15.38;65.54;100949.30;1690147;84;21032;-75
2021/08/10 01:07:39;;;;;;;7.45;3.70;;;;;;;15.34;65.77;100946.66;1690220;84;21072;-75
2021/08/10 01:10:20;;;;;;;7.15;4.03;;;;;;;15.29;65.91;100934.81;1703703;84;21063;-75
2021/08/10 01:13:00;;;;;;;10.08;5.30;;;;;;;15.20;66.07;100928.69;1696700;84;21165;-75
2021/08/10 01:15:37;;;;;;;7.37;4.92;;;;;;;15.17;66.19;100929.07;1649414;84;21102;-75
2021/08/10 01:18:14;;;;;;;8.53;4.60;;;;;;;15.11;66.33;100923.11;1690108;84;21138;-75
2021/08/10 01:20:58;;;;;;;9.55;5.03;;;;;;;15.04;66.37;100920.84;1689264;83;21076;-75
2021/08/10 01:23:26;;;;;;;9.93;4.58;;;;;;;14.87;66.60;100904.59;1689008;84;21107;-75
2021/08/10 01:26:30;;;;;;;8.78;4.55;;;;;;;14.84;66.76;100911.69;1693353;84;21136;-74
2021/08/10 01:29:32;;;;;;;8.98;4.85;;;;;;;14.77;66.91;100914.78;1696464;84;21072;-75
2021/08/10 01:31:58;;;;;;;9.05;5.15;;;;;;;14.46;67.29;100876.83;1699512;84;21034;-75
2021/08/10 01:34:45;;;;;;;9.43;5.60;;;;;;;14.46;67.29;100876.83;1704915;84;21006;-74
2021/08/10 01:37:26;;;;;;;11.10;5.37;;;;;;;14.53;67.50;100897.59;1678413;84;21643;-74
2021/08/10 01:39:56;;;;;;;10.08;5.00;;;;;;;14.47;67.68;100895.95;1705076;84;21656;-75
2021/08/10 01:42:23;;;;;;;11.33;5.17;;;;;;;14.31;68.04;100888.04;1700978;84;21045;-75
2021/08/10 01:44:50;;;;;;;10.00;4.60;;;;;;;14.31;68.04;100888.04;1664692;84;21671;-75
2021/08/10 01:47:16;;;;;;;9.68;5.87;;;;;;;14.21;68.14;100887.47;1690468;84;21010;-75
2021/08/10 01:49:42;;;;;;;20.82;7.17;;;;;;;14.14;68.28;100879.81;1690150;84;21104;-75
2021/08/10 01:52:15;;;;;;;8.15;4.58;;;;;;;14.07;68.46;100880.22;1690966;84;21133;-74
2021/08/10 01:54:41;;;;;;;13.50;4.70;;;;;;;14.00;68.63;100883.29;1705992;83;20998;-75
2021/08/10 01:57:09;;;;;;;11.50;4.67;;;;;;;13.96;68.85;100879.30;1694474;83;21336;-75
2021/08/10 01:59:37;;;;;;;11.55;6.37;;;;;;;13.94;68.95;100886.67;1690119;84;21517;-75
2021/08/10 02:02:05;;;;;;;14.15;7.55;;;;;;;13.83;69.11;100890.60;1690381;84;21060;-75
2021/08/10 02:04:31;;;;;;;10.20;6.20;;;;;;;13.73;69.25;100877.95;1690383;84;21088;-75
2021/08/10 02:06:57;;;;;;;10.60;5.78;;;;;;;13.68;69.41;100876.33;1689966;84;21076;-75
2021/08/10 02:09:23;;;;;;;10.15;6.12;;;;;;;13.64;69.53;100877.69;1694456;84;21058;-75
2021/08/10 02:11:49;;;;;;;9.40;5.53;;;;;;;13.62;69.67;100874.34;1703292;84;21057;-75
2021/08/10 02:14:20;;;;;;;9.85;5.90;;;;;;;13.60;69.79;100872.86;1689913;84;21714;-74
2021/08/10 02:16:46;;;;;;;11.08;5.65;;;;;;;13.56;69.93;100877.73;1680988;83;21854;-75
2021/08/10 02:19:12;;;;;;;11.08;5.72;;;;;;;13.50;70.06;100873.94;1704733;84;21104;-75
2021/08/10 02:21:46;;;;;;;12.10;7.08;;;;;;;13.45;70.19;100870.94;1704735;84;20998;-75
2021/08/10 02:24:25;;;;;;;15.48;8.05;;;;;;;13.40;70.31;100874.67;1704884;84;21640;-75
2021/08/10 02:26:55;;;;;;;16.97;9.18;;;;;;;13.35;70.41;100877.03;1695259;84;21084;-75
2021/08/10 02:29:23;;;;;;;12.03;7.22;;;;;;;13.28;70.56;100869.36;1689577;84;21149;-75
2021/08/10 02:31:50;;;;;;;17.92;11.30;;;;;;;13.23;70.70;100866.36;1690140;84;21708;-75
2021/08/10 02:34:16;;;;;;;24.65;14.43;;;;;;;13.19;70.81;100862.40;1689985;84;21017;-75
2021/08/10 02:36:42;;;;;;;22.07;13.68;;;;;;;13.13;70.93;100863.08;1690370;84;21052;-75
2021/08/10 02:39:08;;;;;;;20.40;8.95;;;;;;;13.07;71.06;100870.45;1688672;84;21088;-75
2021/08/10 02:41:36;;;;;;;11.35;7.15;;;;;;;13.04;71.16;100864.10;1704519;84;21061;-74
2021/08/10 02:44:05;;;;;;;10.65;6.62;;;;;;;13.02;71.26;100856.73;1709293;83;21006;-75
2021/08/10 02:46:31;;;;;;;9.75;5.80;;;;;;;12.98;71.37;100860.80;1709227;83;21054;-75
2021/08/10 02:48:58;;;;;;;12.25;6.60;;;;;;;12.95;71.49;100862.45;1710246;83;21021;-75
2021/08/10 02:51:25;;;;;;;9.48;5.70;;;;;;;12.90;71.56;100859.48;1710184;83;21017;-74
2021/08/10 02:53:51;;;;;;;8.80;5.90;;;;;;;12.88;71.67;100857.46;1710376;83;21119;-74
2021/08/10 02:56:23;;;;;;;8.85;5.95;;;;;;;12.82;71.76;100854.14;1700977;83;21490;-74
2021/08/10 02:59:19;;;;;;;11.55;7.35;;;;;;;12.76;71.87;100850.83;1689301;84;21091;-74
2021/08/10 03:01:53;;;;;;;10.68;5.87;;;;;;;12.71;71.96;100854.52;1690527;84;21461;-75
2021/08/10 03:04:21;;;;;;;12.18;5.37;;;;;;;12.64;72.10;100841.50;1653891;86;21120;-74
2021/08/10 03:06:47;;;;;;;9.45;5.22;;;;;;;12.57;72.20;100844.03;1662284;86;21315;-74
2021/08/10 03:09:13;;;;;;;13.10;5.25;;;;;;;12.55;72.34;100838.53;1647248;84;21142;-75
2021/08/10 03:11:41;;;;;;;9.90;5.33;;;;;;;12.52;72.43;100837.84;1690081;84;21135;-74
2021/08/10 03:14:09;;;;;;;8.80;5.50;;;;;;;12.51;72.51;100836.20;1659691;86;21132;-74
2021/08/10 03:16:35;;;;;;;14.75;8.25;;;;;;;12.50;72.61;100843.89;1666043;85;21053;-75
2021/08/10 03:19:04;;;;;;;14.00;7.33;;;;;;;12.46;72.69;100838.54;1719768;83;21162;-75
2021/08/10 03:21:30;;;;;;;10.40;6.60;;;;;;;12.49;72.75;100834.67;1716451;83;21059;-75
2021/08/10 03:23:56;;;;;;;10.40;6.20;;;;;;;12.48;72.83;100831.20;1702110;84;21606;-74
2021/08/10 03:26:23;;;;;;;10.45;5.97;;;;;;;12.47;72.91;100834.87;1700541;84;21006;-75
2021/08/10 03:28:50;;;;;;;12.05;6.28;;;;;;;12.47;73.00;100836.20;1674063;84;21065;-74
2021/08/10 03:31:16;;;;;;;12.65;7.28;;;;;;;12.45;73.07;100833.37;1701438;84;21598;-74
2021/08/10 03:33:42;;;;;;;10.43;6.55;;;;;;;12.45;73.15;100832.84;1701456;84;21077;-74
2021/08/10 03:36:08;;;;;;;11.30;7.40;;;;;;;12.50;73.25;100839.03;1701821;84;21066;-74
2021/08/10 03:38:34;;;;;;;10.72;7.33;;;;;;;12.52;73.33;100837.84;1701599;84;21850;-74
2021/08/10 03:41:01;;;;;;;15.68;7.87;;;;;;;12.54;73.39;100831.00;1674276;84;21101;-74
2021/08/10 03:43:28;;;;;;;9.48;6.55;;;;;;;12.59;73.45;100833.17;1689644;84;21151;-74
2021/08/10 03:45:54;;;;;;;10.68;5.92;;;;;;;12.64;73.50;100828.11;1685215;85;21054;-74
2021/08/10 03:48:20;;;;;;;9.28;5.60;;;;;;;12.67;73.59;100825.09;1688091;84;21054;-75
2021/08/10 03:50:48;;;;;;;8.55;5.62;;;;;;;12.71;73.65;100822.41;1683081;84;21642;-75
2021/08/10 03:53:14;;;;;;;10.43;5.97;;;;;;;12.74;73.74;100817.54;1685741;84;21061;-75
2021/08/10 03:55:40;;;;;;;12.47;6.60;;;;;;;12.82;73.79;100820.19;1688323;84;21135;-75
2021/08/10 03:58:06;;;;;;;11.60;5.45;;;;;;;12.91;73.86;100816.98;1702908;83;21021;-75
2021/08/10 04:00:36;;;;;;;8.78;5.30;;;;;;;13.06;73.91;100820.56;1702617;84;21498;-74
2021/08/10 04:03:05;;;;;;;11.83;6.17;;;;;;;13.25;73.94;100825.53;1702797;83;21019;-75
2021/08/10 04:05:31;;;;;;;12.03;5.73;;;;;;;13.49;73.94;100826.70;1703228;84;21015;-75
2021/08/10 04:08:00;;;;;;;12.47;5.65;;;;;;;13.67;73.89;100818.87;1703036;84;21075;-75
2021/08/10 04:10:25;;;;;;;10.50;5.60;;;;;;;13.85;73.88;100820.73;1688134;82;21062;-75
2021/08/10 04:12:51;;;;;;;12.35;6.12;;;;;;;14.04;73.85;100828.25;1693389;83;21002;-75
2021/08/10 04:15:18;;;;;;;11.35;4.95;;;;;;;14.43;74.00;100827.55;1695392;84;20995;-75
2021/08/10 04:17:44;;;;;;;10.25;5.78;;;;;;;15.59;74.13;100834.78;1695591;84;21015;-75
2021/08/10 04:20:10;;;;;;;9.85;4.90;;;;;;;16.73;73.65;100816.95;1695662;84;21102;-76
2021/08/10 04:22:40;;;;;;;13.58;5.25;;;;;;;17.70;72.99;100837.71;1695306;84;20978;-75
2021/08/10 04:25:06;;;;;;;;;;;;;;;18.42;72.23;100842.61;1697943;84;21086;-75
2021/08/10 04:27:32;;;;;;;9.23;4.55;;;;;;;18.09;71.37;100845.84;1686403;84;20155;-76
2021/08/10 04:29:58;;;;;;;167.93;36.45;;;;;;;17.68;71.19;100834.41;1686086;85;21010;-76
2021/08/10 04:32:24;;;;;;;87.92;22.80;;;;;;;17.31;71.10;100834.41;1688791;84;21108;-76
2021/08/10 04:34:51;;;;;;;211.80;47.88;;;;;;;17.12;71.02;100833.30;1695433;84;21508;-75
2021/08/10 04:37:17;;;;;;;27.80;10.18;;;;;;;17.06;70.88;100834.12;1695577;84;20983;-76
2021/08/10 04:39:43;;;;;;;14.58;6.35;;;;;;;17.01;70.67;100837.92;1689228;84;21124;-75
2021/08/10 04:42:09;;;;;;;11.90;5.75;;;;;;;16.97;70.52;100833.96;1687608;84;21085;-75
2021/08/10 04:44:35;;;;;;;11.25;4.78;;;;;;;16.87;70.33;100837.55;1695239;84;21089;-75
2021/08/10 04:47:01;;;;;;;14.95;7.70;;;;;;;17.38;70.49;100836.06;1686438;84;21087;-75
2021/08/10 04:49:28;;;;;;;9.75;6.05;;;;;;;18.43;70.23;100833.99;1654921;85;21515;-75
2021/08/10 04:51:54;;;;;;;14.65;5.37;;;;;;;19.36;69.22;100838.88;1647302;84;21027;-75
2021/08/10 04:54:20;;;;;;;5.95;3.90;;;;;;;19.17;68.30;100843.87;1685518;84;21122;-76
2021/08/10 04:56:46;;;;;;;12.63;6.83;;;;;;;18.66;67.72;100837.59;1690722;84;21697;-76
2021/08/10 04:59:12;;;;;;;10.82;4.75;;;;;;;18.21;67.61;100834.74;1672670;84;21066;-76
2021/08/10 05:01:39;;;;;;;9.05;4.58;;;;;;;17.93;67.57;100834.13;1663610;84;21071;-76
2021/08/10 05:04:06;;;;;;;10.85;4.90;;;;;;;17.57;67.51;100833.66;1690061;84;21106;-76
2021/08/10 05:06:39;;;;;;;19.60;7.80;;;;;;;17.33;67.49;100831.82;1689755;84;21580;-76
2021/08/10 05:09:08;;;;;;;8.53;5.10;;;;;;;17.28;67.54;100835.62;1672657;84;21471;-75
2021/08/10 05:11:34;;;;;;;12.70;5.50;;;;;;;17.32;67.50;100835.54;1667786;86;21034;-75
2021/08/10 05:14:00;;;;;;;14.30;5.53;;;;;;;17.34;67.47;100836.19;1682698;84;21092;-75
2021/08/10 05:16:26;;;;;;;6.62;4.22;;;;;;;17.31;67.44;100833.87;1681366;85;21116;-75
2021/08/10 05:18:52;;;;;;;8.68;4.47;;;;;;;17.25;67.41;100834.69;1681658;84;21058;-75
2021/08/10 05:21:19;;;;;;;12.00;4.85;;;;;;;17.23;67.36;100832.73;1672881;85;21191;-75
2021/08/10 05:23:46;;;;;;;8.98;3.75;;;;;;;17.11;67.32;100831.63;1676434;85;21003;-75
2021/08/10 05:26:12;;;;;;;6.53;4.03;;;;;;;17.01;67.35;100833.87;1687187;84;21554;-75
2021/08/10 05:28:38;;;;;;;7.97;3.75;;;;;;;16.91;67.34;100832.08;1701760;84;21527;-75
2021/08/10 05:31:04;;;;;;;5.33;3.87;;;;;;;16.88;67.36;100840.56;1688955;84;21057;-75
2021/08/10 05:33:30;;;;;;;8.55;4.08;;;;;;;16.87;67.40;100836.20;1682450;84;21138;-75
2021/08/10 05:35:57;;;;;;;11.25;6.03;;;;;;;16.85;67.44;100835.58;1682195;84;21077;-75
2021/08/10 05:38:23;;;;;;;9.73;4.55;;;;;;;16.90;67.49;100832.59;1683405;84;21089;-75
2021/08/10 05:40:49;;;;;;;10.75;4.20;;;;;;;16.89;67.49;100836.30;1681828;85;21099;-75
2021/08/10 05:43:15;;;;;;;10.88;4.33;;;;;;;16.86;67.53;100837.22;1682715;85;21122;-75
2021/08/10 05:45:41;;;;;;;9.28;4.30;;;;;;;16.83;67.62;100837.11;1680791;85;21499;-75
2021/08/10 05:48:10;;;;;;;10.95;4.83;;;;;;;16.82;67.65;100832.75;1677974;85;21641;-75
2021/08/10 05:50:36;;;;;;;12.33;7.15;;;;;;;16.89;67.69;100832.77;1680287;84;21536;-75
2021/08/10 05:53:02;;;;;;;9.80;5.70;;;;;;;17.10;67.72;100828.61;1683911;85;21011;-75
2021/08/10 05:55:28;;;;;;;7.05;5.03;;;;;;;17.39;67.69;100828.81;1686085;84;21025;-75
2021/08/10 05:57:54;;;;;;;9.88;4.50;;;;;;;17.81;67.59;100824.45;1685470;85;21727;-75
2021/08/10 06:00:20;;;;;;;9.23;4.37;;;;;;;18.01;67.47;100822.30;1683917;85;21054;-75
2021/08/10 06:02:46;;;;;;;10.93;5.45;;;;;;;17.93;67.40;100823.33;1683819;84;21474;-75
2021/08/10 06:05:12;;;;;;;11.18;4.15;;;;;;;17.87;67.33;100822.81;1702265;84;21053;-75
2021/08/10 06:07:38;;;;;;;8.75;4.47;;;;;;;17.76;67.29;100825.61;1683077;84;21026;-75
2021/08/10 06:10:05;;;;;;;6.17;4.03;;;;;;;17.71;67.24;100825.38;1677450;84;21055;-75
2021/08/10 06:12:31;;;;;;;7.75;3.92;;;;;;;17.71;67.24;100831.29;1672846;85;21543;-75
2021/08/10 06:14:57;;;;;;;9.45;4.17;;;;;;;17.66;67.17;100827.05;1686517;84;21078;-75
2021/08/10 06:17:23;;;;;;;11.95;4.72;;;;;;;17.63;67.18;100831.48;1701460;83;21067;-75
2021/08/10 06:19:49;;;;;;;8.25;4.75;;;;;;;17.62;67.21;100833.89;1674368;84;21021;-75
2021/08/10 06:22:15;;;;;;;8.60;4.17;;;;;;;17.63;67.21;100834.17;1680435;85;21161;-75
2021/08/10 06:24:41;;;;;;;12.03;4.37;;;;;;;17.62;67.26;100828.49;1683843;85;21087;-75
2021/08/10 06:27:07;;;;;;;6.67;4.12;;;;;;;17.59;67.28;100830.25;1686588;85;21034;-75
2021/08/10 06:29:33;;;;;;;13.00;5.12;;;;;;;17.62;67.31;100823.09;1697902;84;22253;-76
2021/08/10 06:31:59;;;;;;;10.00;3.87;;;;;;;17.62;67.34;100827.14;1692826;84;21080;-76
2021/08/10 06:34:25;;;;;;;10.30;4.72;;;;;;;17.65;67.39;100826.73;1699984;84;21141;-76
2021/08/10 06:36:51;;;;;;;8.43;4.60;;;;;;;17.65;67.33;100821.33;1700754;84;21014;-76
2021/08/10 06:39:17;;;;;;;9.85;4.65;;;;;;;17.70;67.35;100820.18;1698038;84;21140;-76
2021/08/10 06:41:43;;;;;;;9.33;4.65;;;;;;;17.67;67.31;100813.34;1694588;84;21049;-76
2021/08/10 06:44:09;;;;;;;7.75;4.67;;;;;;;17.68;67.36;100812.83;1693971;84;21073;-75
2021/08/10 06:46:36;;;;;;;7.53;4.55;;;;;;;17.78;67.38;100814.59;1702348;84;21486;-75
2021/08/10 06:49:02;;;;;;;12.98;5.25;;;;;;;17.86;67.37;100811.70;1700204;84;21025;-76
2021/08/10 06:51:28;;;;;;;14.95;4.67;;;;;;;18.13;67.35;100813.34;1691007;84;21099;-76
2021/08/10 06:53:54;;;;;;;6.37;4.15;;;;;;;18.41;67.26;100813.94;1692832;84;21020;-76
2021/08/10 06:56:20;;;;;;;7.25;4.03;;;;;;;18.64;67.17;100815.38;1691684;84;21126;-76
2021/08/10 06:58:46;;;;;;;11.08;4.50;;;;;;;19.01;67.08;100810.55;1697024;84;21867;-76
2021/08/10 07:01:12;;;;;;;6.03;4.33;;;;;;;19.35;66.91;100811.52;1694884;83;21488;-76
2021/08/10 07:03:38;;;;;;;6.83;3.77;;;;;;;19.76;66.73;100811.60;1695189;83;21047;-77
2021/08/10 07:06:04;;;;;;;8.48;3.45;;;;;;;20.18;66.48;100812.18;1681247;84;21079;-77
2021/08/10 07:08:30;;;;;;;7.83;4.60;;;;;;;20.56;66.11;100808.48;1701665;82;21070;-77
2021/08/10 07:10:56;;;;;;;6.35;3.62;;;;;;;20.84;65.73;100803.37;1691790;84;21110;-77
2021/08/10 07:13:22;;;;;;;8.35;4.17;;;;;;;21.08;65.41;100809.22;1693210;84;21004;-77
2021/08/10 07:15:50;;;;;;;5.83;3.12;;;;;;;21.27;65.08;100805.45;1686381;84;21076;-77
2021/08/10 07:18:16;;;;;;;11.35;3.80;;;;;;;21.48;64.74;100811.42;1685168;85;21069;-77
2021/08/10 07:20:42;;;;;;;5.85;3.15;;;;;;;21.68;64.40;100811.41;1678594;84;21090;-78
2021/08/10 07:23:08;;;;;;;7.75;3.15;;;;;;;21.85;63.95;100808.31;1673045;84;22363;-76
2021/08/10 07:25:34;;;;;;;6.70;3.62;;;;;;;21.99;63.53;100810.88;1693254;84;21019;-76
2021/08/10 07:28:00;;;;;;;8.08;4.10;;;;;;;22.02;63.20;100812.59;1685862;84;21010;-77
2021/08/10 07:30:26;;;;;;;5.92;2.75;;;;;;;21.94;62.85;100815.64;1688897;84;21018;-77
2021/08/10 07:32:52;;;;;;;4.37;2.75;;;;;;;21.83;62.47;100810.98;1694792;84;21089;-77
2021/08/10 07:35:18;;;;;;;8.05;3.37;;;;;;;21.78;62.25;100808.95;1678843;84;21261;-77
2021/08/10 07:37:44;;;;;;;9.03;3.70;;;;;;;21.73;62.04;100814.80;1680278;85;21531;-77
2021/08/10 07:40:11;;;;;;;5.05;2.72;;;;;;;21.66;61.85;100816.27;1683310;85;21015;-77
2021/08/10 07:42:37;;;;;;;5.95;2.58;;;;;;;21.53;61.68;100812.92;1679569;85;21016;-77
2021/08/10 07:45:05;;;;;;;5.70;2.92;;;;;;;21.39;61.55;100813.09;1681090;84;21026;-76
2021/08/10 07:47:32;;;;;;;9.20;3.10;;;;;;;21.22;61.48;100806.66;1683810;85;21879;-76
2021/08/10 07:49:58;;;;;;;9.18;3.55;;;;;;;21.15;61.41;100803.20;1658568;85;21320;-76
2021/08/10 07:52:24;;;;;;;8.13;3.08;;;;;;;20.94;61.29;100809.08;1681409;84;21653;-77
2021/08/10 07:54:51;;;;;;;8.60;3.47;;;;;;;20.86;61.37;100810.77;1672373;85;21031;-76
2021/08/10 07:57:17;;;;;;;7.53;3.60;;;;;;;20.86;61.37;100809.41;1674010;84;21134;-77
2021/08/10 07:59:43;;;;;;;4.17;3.17;;;;;;;20.91;61.36;100811.73;1682107;85;21060;-77
2021/08/10 08:02:09;;;;;;;10.45;6.28;;;;;;;20.96;61.36;100819.19;1672313;85;21066;-77
2021/08/10 08:04:35;;;;;;;9.38;6.00;;;;;;;20.96;61.41;100809.70;1682337;84;21013;-77
2021/08/10 08:07:02;;;;;;;4.75;3.55;;;;;;;20.95;61.46;100812.10;1694246;84;21470;-77
2021/08/10 08:09:28;;;;;;;8.83;3.22;;;;;;;20.96;61.50;100806.98;1688197;84;21077;-77
2021/08/10 08:11:54;;;;;;;4.47;2.50;;;;;;;20.93;61.57;100808.80;1686751;85;21081;-77
2021/08/10 08:14:21;;;;;;;4.42;3.12;;;;;;;20.79;61.52;100812.73;1673653;84;21526;-77
2021/08/10 08:16:48;;;;;;;5.58;3.17;;;;;;;20.77;61.60;100810.75;1690092;84;21035;-77
2021/08/10 08:19:14;;;;;;;5.15;3.17;;;;;;;20.80;61.65;100814.36;1692365;84;21132;-76
2021/08/10 08:21:40;;;;;;;10.82;4.25;;;;;;;20.85;61.65;100819.42;1687186;84;21457;-77
2021/08/10 08:24:06;;;;;;;5.75;3.08;;;;;;;20.93;61.60;100819.09;1685656;84;21145;-77
2021/08/10 08:26:33;;;;;;;5.22;3.12;;;;;;;20.98;61.57;100823.02;1662102;85;21734;-77
2021/08/10 08:28:59;;;;;;;8.28;3.08;;;;;;;20.97;61.55;100825.45;1666177;84;21068;-76
2021/08/10 08:31:26;;;;;;;7.55;3.30;;;;;;;20.97;61.49;100833.03;1688855;85;21079;-76
2021/08/10 08:33:52;;;;;;;7.35;3.40;;;;;;;20.92;61.48;100824.77;1670216;85;21030;-76
2021/08/10 08:36:18;;;;;;;6.42;3.35;;;;;;;20.89;61.42;100822.52;1695228;84;21167;-77
2021/08/10 08:38:46;;;;;;;8.70;3.20;;;;;;;20.82;61.47;100827.19;1684339;84;21026;-76
2021/08/10 08:41:12;;;;;;;4.80;2.75;;;;;;;20.85;61.53;100819.42;1698630;84;21470;-76
2021/08/10 08:43:39;;;;;;;7.33;3.20;;;;;;;20.93;61.60;100817.73;1696137;84;21069;-76
2021/08/10 08:46:06;;;;;;;6.33;3.60;;;;;;;20.94;61.59;100818.57;1695993;84;21052;-77
2021/08/10 08:48:32;;;;;;;6.10;3.30;;;;;;;20.95;61.63;100814.81;1666450;86;21169;-77
2021/08/10 08:51:00;;;;;;;5.35;3.00;;;;;;;21.05;61.65;100813.74;1666845;85;21076;-77
2021/08/10 08:53:27;;;;;;;5.05;3.12;;;;;;;21.03;61.57;100815.87;1663411;85;21031;-77
2021/08/10 08:55:53;;;;;;;6.53;3.02;;;;;;;21.10;61.60;100819.36;1661989;85;21512;-77
2021/08/10 08:58:19;;;;;;;3.33;2.72;;;;;;;21.22;61.61;100812.08;1667570;85;21122;-76
2021/08/10 09:00:45;;;;;;;7.90;3.10;;;;;;;21.32;61.50;100814.27;1671271;85;21060;-76
2021/08/10 09:03:11;;;;;;;5.28;2.90;;;;;;;21.36;61.43;100801.87;1677392;85;21485;-76
2021/08/10 09:05:40;;;;;;;6.12;2.80;;;;;;;21.47;61.36;100807.04;1671278;85;21706;-76
2021/08/10 09:08:33;;;;;;;7.05;3.05;;;;;;;21.61;61.29;100790.85;1675945;85;21641;-77
2021/08/10 09:11:03;;;;;;;5.22;3.02;;;;;;;21.81;61.10;100791.39;1669405;85;21036;-77
2021/08/10 09:13:30;;;;;;;3.83;2.95;;;;;;;21.85;60.87;100782.52;1670869;85;21432;-76
2021/08/10 09:16:01;;;;;;;5.12;2.62;;;;;;;22.00;60.79;100790.25;1673311;85;21118;-76
2021/08/10 09:18:27;;;;;;;7.80;2.47;;;;;;;22.23;60.61;100782.12;1684427;85;21063;-77
2021/08/10 09:21:14;;;;;;;4.20;2.85;;;;;;;22.48;60.42;100778.31;1669573;85;21023;-77
2021/08/10 09:23:49;;;;;;;4.17;2.67;;;;;;;22.68;60.19;100780.13;1682061;85;21013;-77
2021/08/10 09:26:34;;;;;;;3.42;2.05;;;;;;;22.73;59.71;100778.89;1678668;84;21629;-77
2021/08/10 09:29:00;;;;;;;4.50;3.02;;;;;;;22.71;59.39;100770.13;1674919;84;21031;-77
2021/08/10 09:31:46;;;;;;;7.60;2.40;;;;;;;22.88;59.17;100771.86;1687621;84;21594;-76
2021/08/10 09:34:23;;;;;;;8.65;2.65;;;;;;;23.21;58.92;100765.70;1684981;84;21088;-76
2021/08/10 09:36:50;;;;;;;4.35;2.70;;;;;;;23.65;58.52;100759.14;1686909;84;21133;-76
2021/08/10 09:39:16;;;;;;;6.03;2.17;;;;;;;23.96;58.25;100755.83;1678952;84;21802;-77
2021/08/10 09:42:02;;;;;;;6.03;2.12;;;;;;;24.25;57.90;100750.58;1682646;84;21022;-77
2021/08/10 09:44:28;;;;;;;5.30;3.22;;;;;;;24.34;57.37;100740.91;1677254;84;21470;-77
2021/08/10 09:46:54;;;;;;;7.10;2.70;;;;;;;24.51;57.03;100739.48;1666346;85;21648;-77
2021/08/10 09:49:20;;;;;;;4.33;1.80;;;;;;;24.68;56.55;100733.96;1668725;85;20952;-78
2021/08/10 09:51:50;;;;;;;6.05;2.10;;;;;;;24.64;56.14;100729.55;1664713;85;21998;-78
2021/08/10 09:54:16;;;;;;;4.75;2.40;;;;;;;24.53;55.64;100721.49;1677001;84;21062;-78
2021/08/10 09:56:55;;;;;;;5.55;2.10;;;;;;;24.53;55.16;100724.22;1669555;84;21026;-78
2021/08/10 09:59:43;;;;;;;2.95;2.20;;;;;;;24.46;54.78;100725.77;1643016;87;21031;-77
2021/08/10 10:02:19;;;;;;;3.55;2.20;;;;;;;24.52;54.47;100718.50;1676065;85;21107;-77
2021/08/10 10:04:55;;;;;;;4.85;2.20;;;;;;;24.61;54.20;100716.97;1683039;84;22517;-78
2021/08/10 10:07:21;;;;;;;7.12;1.87;;;;;;;24.67;53.81;100721.39;1672809;85;21523;-77
2021/08/10 10:09:47;;;;;;;5.75;2.00;;;;;;;24.62;53.14;100719.98;1670883;84;21526;-78
2021/08/10 10:12:14;;;;;;;3.17;1.90;;;;;;;24.52;52.78;100713.05;1673060;85;21533;-77
2021/08/10 10:14:40;;;;;;;4.25;2.15;;;;;;;24.67;52.53;100715.41;1682567;84;21082;-78
2021/08/10 10:17:10;;;;;;;4.17;2.10;;;;;;;24.83;52.18;100704.17;1663608;84;21950;-77
2021/08/10 10:19:38;;;;;;;4.37;1.45;;;;;;;24.99;51.82;100699.14;1678941;85;21065;-77
2021/08/10 10:22:13;;;;;;;2.55;1.50;;;;;;;25.07;51.38;100697.33;1688303;85;21036;-78
2021/08/10 10:24:38;;;;;;;4.25;1.72;;;;;;;25.11;51.15;100698.47;1687472;83;21013;-77
2021/08/10 10:27:06;;;;;;;5.83;1.72;;;;;;;25.24;50.88;100698.03;1689224;84;21036;-78
2021/08/10 10:29:33;;;;;;;5.33;1.70;;;;;;;25.31;50.65;100694.55;1693419;84;21620;-77
2021/08/10 10:31:59;;;;;;;4.20;1.50;;;;;;;25.25;50.36;100700.23;1681031;84;21708;-77
2021/08/10 10:34:25;;;;;;;5.78;1.72;;;;;;;25.18;50.11;100707.27;1695297;84;21014;-77
2021/08/10 10:36:51;;;;;;;4.42;2.10;;;;;;;25.13;50.03;100711.30;1696044;83;21052;-77
2021/08/10 10:39:29;;;;;;;8.20;2.25;;;;;;;25.03;49.96;100705.74;1694466;84;21034;-77
2021/08/10 10:41:58;;;;;;;8.28;2.52;;;;;;;25.02;49.88;100710.08;1654060;84;22668;-77
2021/08/10 10:44:40;;;;;;;8.53;2.52;;;;;;;24.93;49.80;100705.64;1697610;83;21027;-78
2021/08/10 10:47:33;;;;;;;8.38;2.17;;;;;;;24.89;49.79;100704.50;1677080;84;21038;-78
2021/08/10 10:50:05;;;;;;;5.97;2.42;;;;;;;24.86;49.80;100703.66;1668827;85;21054;-78
2021/08/10 10:52:33;;;;;;;6.08;1.80;;;;;;;24.83;49.84;100696.81;1719248;83;21037;-78
2021/08/10 10:55:00;;;;;;;3.33;1.77;;;;;;;24.71;49.86;100700.17;1703108;83;22705;-78
2021/08/10 10:57:34;;;;;;;4.90;1.98;;;;;;;24.67;49.91;100700.94;1710879;83;21021;-77
2021/08/10 11:00:14;;;;;;;4.17;2.10;;;;;;;24.72;49.97;100698.28;1713512;83;20986;-77
2021/08/10 11:02:40;;;;;;;3.42;1.90;;;;;;;24.62;49.89;100688.08;1701128;83;21069;-77
2021/08/10 11:05:16;;;;;;;3.02;1.85;;;;;;;24.64;49.88;100686.45;1716834;83;21022;-77
2021/08/10 11:07:53;;;;;;;5.95;1.98;;;;;;;24.65;49.85;100678.02;1705849;83;21829;-77
2021/08/10 11:10:47;;;;;;;4.80;1.90;;;;;;;24.55;49.74;100681.17;1691846;81;21000;-77
2021/08/10 11:13:25;;;;;;;4.55;2.08;;;;;;;24.51;49.69;100670.48;1698233;83;21100;-78
2021/08/10 11:15:55;;;;;;;5.33;1.82;;;;;;;24.45;49.66;100663.33;1656912;84;21097;-78
2021/08/10 11:18:22;;;;;;;3.02;1.80;;;;;;;24.68;49.67;100661.67;1681252;85;21027;-78
2021/08/10 11:21:01;;;;;;;4.12;1.82;;;;;;;24.88;49.58;100661.91;1682356;84;22024;-78
2021/08/10 11:23:32;;;;;;;6.33;2.27;;;;;;;25.00;49.54;100651.68;1663291;85;21448;-78
2021/08/10 11:26:09;;;;;;;2.90;1.82;;;;;;;25.06;49.53;100656.63;1681981;84;21096;-78
2021/08/10 11:28:51;;;;;;;4.47;1.67;;;;;;;25.08;49.42;100656.67;1674271;85;21535;-78